Aérodrome :
LOGIN :

S'inscrire | Disclaimer

   EN    FR    IT 

 










Légende :    VFR   VFR Marginal   IFR   IFR Intensif   IFR Très Intensif
Visi : 
Plafond : 
>= 8 km
>= 3000ft
5 à 8 km
1000 à 3000 ft
1500m à 5 km
500 à 1000 ft
800 à 1500m
200 à 500 ft
< 800m
< 200 ft
Symboles :   Orages  Brouillard  Fortes neiges  Fortes précipitations  Vent > 20 kt
SIGMETs :   Divers  Orages  Givrage  Turbulence  Onde Orograph.  Cendres Volcan.






- Altitude de l'aérodrome : 2661 ft
- Code IATA : TEE


DABS - Cheikh Larbi Tebessi

DERNIER METAR :
  • 280000Z 13003KT CAVOK 03/M07 Q1022

METARs EXPIRÉS :
  • 272300Z 11004KT CAVOK 05/M06 Q1022
  • 272200Z 11004KT CAVOK 05/M07 Q1022

TAF TAF DABS
Valide du 28 à 00h jusqu'au 29 à 00h UTC


272300Z 2800/2824 22008KT CAVOK
BECMG 2808/2810 34010KT
BECMG 2818/2820 19006KT



MET'MAP, la Météo Aéronautique d'un coup d'oeil ! - Copyright ORBIFLY Décembre 2007 - Disclaimer

ORBIFLY MET'MAP TEAM :

Programmation & Développement : Alexandra Zaïnal
Sur une idée originale de : Baudouin d'Aumeries
Assistance à la programmation : Marc-Olivier Méhu
Soutien technique & logistique : Manuel Goepfert

Contact : metmap@orbifly.com




SOURCES & CREDITS :

   NOAA